Aérodrome :
LOGIN :

S'inscrire | Disclaimer

   EN    FR    IT 

 










Légende :    VFR   VFR Marginal   IFR   IFR Intensif   IFR Très Intensif
Visi : 
Plafond : 
>= 8 km
>= 3000ft
5 à 8 km
1000 à 3000 ft
1500m à 5 km
500 à 1000 ft
800 à 1500m
200 à 500 ft
< 800m
< 200 ft
Symboles :   Orages  Brouillard  Fortes neiges  Fortes précipitations  Vent > 20 kt
SIGMETs :   Divers  Orages  Givrage  Turbulence  Onde Orograph.  Cendres Volcan.






- Altitude de l'aérodrome : 17 ft
- Code IATA : GRQ


EHGG - Groningen Eelde

DERNIER METAR :
  • 230125Z AUTO 25015KT 220V280 9999 FEW023 BKN039 08/04 Q1015

METARs EXPIRÉS :
  • 230055Z AUTO 24013KT 9999 SCT031 BKN039 08/04 Q1015
  • 230025Z AUTO 24012KT 9999 NSC 08/03 Q1015
  • 222355Z AUTO 24012KT 9999 NSC 08/03 Q1015
  • 222325Z AUTO 25010KT 210V280 9999 NSC 07/02 Q1016
  • 222255Z AUTO 26012KT 230V300 9999 NSC 08/01 Q1016

TAF TAF EHGG
Valide du 23 à 00h jusqu'au 24 à 06h UTC


222314Z 2300/2406 26016G28KT 9999 SCT045
PROB30
TEMPO 2300/2304 6000 SHRA SCT020CB BKN030
BECMG 2304/2307 23012KT 7000 RA BKN012
TEMPO 2305/2315 4000 BKN007
BECMG 2307/2310 VRB03KT
BECMG 2312/2314 30015G25KT 9999 NSW BKN025
PROB40
TEMPO 2314/2320 30018G30KT 4000 SHRA RA BKN012 SCT020CB
BECMG 2321/2324 27012KT SCT035
BECMG 2403/2406 24007KT



MET'MAP, la Météo Aéronautique d'un coup d'oeil ! - Copyright ORBIFLY Décembre 2007 - Disclaimer

ORBIFLY MET'MAP TEAM :

Programmation & Développement : Alexandra Zaïnal
Sur une idée originale de : Baudouin d'Aumeries
Assistance à la programmation : Marc-Olivier Méhu
Soutien technique & logistique : Manuel Goepfert

Contact : metmap@orbifly.com




SOURCES & CREDITS :

   NOAA